sensor_id;sensor_type;location;lat;lon;timestamp;pressure;altitude;pressure_sealevel;temperature;humidity
42761;BME280;31672;47.638;19.026;2023-02-16T00:05:29;101490.88;;;-3.30;98.70
42761;BME280;31672;47.638;19.026;2023-02-16T00:10:35;101497.00;;;-3.32;99.04
42761;BME280;31672;47.638;19.026;2023-02-16T00:15:40;101487.56;;;-3.35;99.09
42761;BME280;31672;47.638;19.026;2023-02-16T00:20:44;101483.22;;;-3.34;99.38
42761;BME280;31672;47.638;19.026;2023-02-16T00:25:47;101481.56;;;-3.37;99.20
42761;BME280;31672;47.638;19.026;2023-02-16T00:30:50;101482.66;;;-3.44;99.26
42761;BME280;31672;47.638;19.026;2023-02-16T00:35:53;101477.63;;;-3.50;99.31
42761;BME280;31672;47.638;19.026;2023-02-16T00:40:56;101485.56;;;-3.55;99.44
42761;BME280;31672;47.638;19.026;2023-02-16T00:45:59;101473.59;;;-3.59;99.70
42761;BME280;31672;47.638;19.026;2023-02-16T00:51:02;101478.84;;;-3.62;99.75
42761;BME280;31672;47.638;19.026;2023-02-16T00:56:22;101472.94;;;-3.65;99.96
42761;BME280;31672;47.638;19.026;2023-02-16T01:01:29;101463.56;;;-3.71;100.00
42761;BME280;31672;47.638;19.026;2023-02-16T01:06:33;101461.09;;;-3.75;100.00
42761;BME280;31672;47.638;19.026;2023-02-16T01:11:55;101457.66;;;-3.76;100.00
42761;BME280;31672;47.638;19.026;2023-02-16T01:16:58;101460.19;;;-3.74;100.00
42761;BME280;31672;47.638;19.026;2023-02-16T01:22:01;101459.25;;;-3.72;100.00
42761;BME280;31672;47.638;19.026;2023-02-16T01:27:04;101456.63;;;-3.70;100.00
42761;BME280;31672;47.638;19.026;2023-02-16T01:32:11;101454.88;;;-3.70;100.00
42761;BME280;31672;47.638;19.026;2023-02-16T01:37:15;101439.38;;;-3.73;100.00
42761;BME280;31672;47.638;19.026;2023-02-16T01:42:47;101440.25;;;-3.74;100.00
42761;BME280;31672;47.638;19.026;2023-02-16T01:48:00;101429.13;;;-3.78;100.00
42761;BME280;31672;47.638;19.026;2023-02-16T01:53:36;101425.78;;;-3.81;100.00
42761;BME280;31672;47.638;19.026;2023-02-16T01:58:51;101418.78;;;-3.79;100.00
42761;BME280;31672;47.638;19.026;2023-02-16T02:03:56;101410.19;;;-3.81;100.00
42761;BME280;31672;47.638;19.026;2023-02-16T02:09:41;101412.06;;;-3.86;100.00
42761;BME280;31672;47.638;19.026;2023-02-16T02:14:46;101412.97;;;-3.87;100.00
42761;BME280;31672;47.638;19.026;2023-02-16T02:47:18;101401.97;;;-3.95;100.00
42761;BME280;31672;47.638;19.026;2023-02-16T02:53:04;101402.91;;;-3.98;100.00
42761;BME280;31672;47.638;19.026;2023-02-16T02:58:09;101398.72;;;-4.04;100.00
42761;BME280;31672;47.638;19.026;2023-02-16T03:03:43;101392.81;;;-4.09;100.00
42761;BME280;31672;47.638;19.026;2023-02-16T03:08:59;101396.50;;;-4.16;100.00
42761;BME280;31672;47.638;19.026;2023-02-16T03:21:43;101394.19;;;-4.25;100.00
42761;BME280;31672;47.638;19.026;2023-02-16T03:27:06;101395.97;;;-4.27;100.00
42761;BME280;31672;47.638;19.026;2023-02-16T03:39:54;101392.81;;;-4.38;100.00
42761;BME280;31672;47.638;19.026;2023-02-16T03:45:47;101398.97;;;-4.41;100.00
42761;BME280;31672;47.638;19.026;2023-02-16T03:50:50;101385.22;;;-4.44;100.00
42761;BME280;31672;47.638;19.026;2023-02-16T03:55:53;101392.16;;;-4.45;100.00
42761;BME280;31672;47.638;19.026;2023-02-16T04:01:38;101392.13;;;-4.43;100.00
42761;BME280;31672;47.638;19.026;2023-02-16T04:07:44;101387.78;;;-4.43;100.00
42761;BME280;31672;47.638;19.026;2023-02-16T04:12:48;101394.75;;;-4.45;100.00
42761;BME280;31672;47.638;19.026;2023-02-16T04:17:52;101389.72;;;-4.51;100.00
42761;BME280;31672;47.638;19.026;2023-02-16T04:23:00;101391.56;;;-4.54;100.00
42761;BME280;31672;47.638;19.026;2023-02-16T04:28:39;101390.69;;;-4.53;100.00
42761;BME280;31672;47.638;19.026;2023-02-16T04:40:55;101391.75;;;-4.62;100.00
42761;BME280;31672;47.638;19.026;2023-02-16T04:45:58;101388.44;;;-4.66;100.00
42761;BME280;31672;47.638;19.026;2023-02-16T04:51:03;101389.22;;;-4.64;100.00
42761;BME280;31672;47.638;19.026;2023-02-16T04:56:11;101382.16;;;-4.59;100.00
42761;BME280;31672;47.638;19.026;2023-02-16T05:01:21;101378.69;;;-4.58;100.00
42761;BME280;31672;47.638;19.026;2023-02-16T05:06:24;101381.31;;;-4.59;100.00
42761;BME280;31672;47.638;19.026;2023-02-16T05:11:27;101383.13;;;-4.63;100.00
42761;BME280;31672;47.638;19.026;2023-02-16T05:16:49;101396.28;;;-4.69;100.00
42761;BME280;31672;47.638;19.026;2023-02-16T05:21:52;101379.22;;;-4.77;100.00
42761;BME280;31672;47.638;19.026;2023-02-16T05:26:55;101379.34;;;-4.82;100.00
42761;BME280;31672;47.638;19.026;2023-02-16T05:31:59;101385.50;;;-4.86;100.00
42761;BME280;31672;47.638;19.026;2023-02-16T05:37:06;101377.88;;;-4.91;100.00
42761;BME280;31672;47.638;19.026;2023-02-16T05:42:10;101384.88;;;-4.94;100.00
42761;BME280;31672;47.638;19.026;2023-02-16T05:47:13;101390.94;;;-4.95;100.00
42761;BME280;31672;47.638;19.026;2023-02-16T05:52:16;101384.00;;;-4.95;100.00
42761;BME280;31672;47.638;19.026;2023-02-16T05:57:20;101387.47;;;-4.94;100.00
42761;BME280;31672;47.638;19.026;2023-02-16T06:02:23;101377.19;;;-4.97;100.00
42761;BME280;31672;47.638;19.026;2023-02-16T06:07:26;101372.88;;;-4.98;100.00
42761;BME280;31672;47.638;19.026;2023-02-16T06:12:29;101383.28;;;-5.00;100.00
42761;BME280;31672;47.638;19.026;2023-02-16T06:17:34;101374.53;;;-4.96;100.00
42761;BME280;31672;47.638;19.026;2023-02-16T06:22:37;101376.88;;;-4.87;100.00
42761;BME280;31672;47.638;19.026;2023-02-16T06:27:40;101381.72;;;-4.74;100.00
42761;BME280;31672;47.638;19.026;2023-02-16T06:32:43;101384.88;;;-4.62;100.00
42761;BME280;31672;47.638;19.026;2023-02-16T06:37:46;101381.88;;;-4.48;100.00
42761;BME280;31672;47.638;19.026;2023-02-16T06:42:48;101384.06;;;-4.34;100.00
42761;BME280;31672;47.638;19.026;2023-02-16T06:47:51;101365.66;;;-4.26;100.00
42761;BME280;31672;47.638;19.026;2023-02-16T06:52:54;101369.69;;;-4.16;100.00
42761;BME280;31672;47.638;19.026;2023-02-16T06:57:57;101368.53;;;-4.06;100.00
42761;BME280;31672;47.638;19.026;2023-02-16T07:03:01;101365.50;;;-3.92;100.00
42761;BME280;31672;47.638;19.026;2023-02-16T07:08:04;101366.81;;;-3.79;100.00
42761;BME280;31672;47.638;19.026;2023-02-16T07:13:07;101371.69;;;-3.68;100.00
42761;BME280;31672;47.638;19.026;2023-02-16T07:18:10;101371.41;;;-3.59;100.00
42761;BME280;31672;47.638;19.026;2023-02-16T07:23:13;101365.63;;;-3.41;100.00
42761;BME280;31672;47.638;19.026;2023-02-16T07:28:16;101360.00;;;-3.29;100.00
42761;BME280;31672;47.638;19.026;2023-02-16T07:33:19;101367.31;;;-3.15;100.00
42761;BME280;31672;47.638;19.026;2023-02-16T07:38:22;101355.50;;;-2.99;100.00
42761;BME280;31672;47.638;19.026;2023-02-16T07:43:25;101373.00;;;-2.79;100.00
42761;BME280;31672;47.638;19.026;2023-02-16T07:48:28;101377.84;;;-2.68;100.00
42761;BME280;31672;47.638;19.026;2023-02-16T07:53:32;101364.09;;;-2.48;100.00
42761;BME280;31672;47.638;19.026;2023-02-16T07:58:35;101367.47;;;-2.23;100.00
42761;BME280;31672;47.638;19.026;2023-02-16T08:03:39;101366.75;;;-2.03;100.00
42761;BME280;31672;47.638;19.026;2023-02-16T08:08:43;101375.78;;;-1.90;100.00
42761;BME280;31672;47.638;19.026;2023-02-16T08:13:46;101370.38;;;-1.85;100.00
42761;BME280;31672;47.638;19.026;2023-02-16T08:18:50;101367.06;;;-1.67;100.00
42761;BME280;31672;47.638;19.026;2023-02-16T08:24:04;101371.97;;;-1.39;100.00
42761;BME280;31672;47.638;19.026;2023-02-16T08:29:08;101360.72;;;-0.98;100.00
42761;BME280;31672;47.638;19.026;2023-02-16T08:34:14;101349.84;;;-0.30;100.00
42761;BME280;31672;47.638;19.026;2023-02-16T08:39:20;101363.38;;;0.70;100.00
42761;BME280;31672;47.638;19.026;2023-02-16T08:44:24;101356.69;;;1.65;100.00
42761;BME280;31672;47.638;19.026;2023-02-16T08:49:27;101361.22;;;2.56;100.00
42761;BME280;31672;47.638;19.026;2023-02-16T08:54:30;101340.09;;;3.18;99.80
42761;BME280;31672;47.638;19.026;2023-02-16T08:59:35;101341.59;;;3.51;98.08
42761;BME280;31672;47.638;19.026;2023-02-16T09:04:38;101348.25;;;3.85;95.38
42761;BME280;31672;47.638;19.026;2023-02-16T09:09:41;101338.97;;;4.06;91.51
42761;BME280;31672;47.638;19.026;2023-02-16T09:14:46;101341.81;;;4.30;89.24
42761;BME280;31672;47.638;19.026;2023-02-16T09:19:49;101330.75;;;4.65;87.16
42761;BME280;31672;47.638;19.026;2023-02-16T09:24:52;101338.09;;;4.99;85.19
42761;BME280;31672;47.638;19.026;2023-02-16T09:29:55;101338.63;;;5.30;83.19
42761;BME280;31672;47.638;19.026;2023-02-16T09:35:00;101339.66;;;5.40;79.86
42761;BME280;31672;47.638;19.026;2023-02-16T09:40:03;101335.00;;;5.56;78.58
42761;BME280;31672;47.638;19.026;2023-02-16T09:45:13;101338.53;;;5.94;77.92
42761;BME280;31672;47.638;19.026;2023-02-16T09:50:23;101337.38;;;6.22;76.19
42761;BME280;31672;47.638;19.026;2023-02-16T09:56:07;101324.25;;;6.33;73.39
42761;BME280;31672;47.638;19.026;2023-02-16T10:12:07;101314.31;;;6.83;69.38
42761;BME280;31672;47.638;19.026;2023-02-16T10:28:52;101304.78;;;7.15;69.40
42761;BME280;31672;47.638;19.026;2023-02-16T10:39:47;101283.38;;;8.50;67.44
42761;BME280;31672;47.638;19.026;2023-02-16T10:45:16;101265.53;;;8.94;65.15
42761;BME280;31672;47.638;19.026;2023-02-16T10:50:37;101261.91;;;9.25;62.75
42761;BME280;31672;47.638;19.026;2023-02-16T10:55:42;101249.63;;;9.24;60.99
42761;BME280;31672;47.638;19.026;2023-02-16T11:01:13;101242.81;;;9.72;61.33
42761;BME280;31672;47.638;19.026;2023-02-16T11:06:24;101242.97;;;9.99;59.03
42761;BME280;31672;47.638;19.026;2023-02-16T11:11:35;101233.47;;;10.16;58.17
42761;BME280;31672;47.638;19.026;2023-02-16T11:16:39;101220.72;;;10.49;58.15
42761;BME280;31672;47.638;19.026;2023-02-16T11:21:52;101213.09;;;10.92;58.53
42761;BME280;31672;47.638;19.026;2023-02-16T11:27:21;101209.38;;;11.40;56.35
42761;BME280;31672;47.638;19.026;2023-02-16T11:32:24;101207.84;;;11.38;55.75
42761;BME280;31672;47.638;19.026;2023-02-16T11:37:31;101200.63;;;11.48;55.07
42761;BME280;31672;47.638;19.026;2023-02-16T11:42:40;101193.44;;;11.58;54.51
42761;BME280;31672;47.638;19.026;2023-02-16T11:47:54;101182.63;;;11.60;54.13
42761;BME280;31672;47.638;19.026;2023-02-16T11:53:23;101167.75;;;11.39;53.74
42761;BME280;31672;47.638;19.026;2023-02-16T11:58:27;101169.50;;;11.31;53.71
42761;BME280;31672;47.638;19.026;2023-02-16T12:14:44;101135.75;;;10.10;54.83
42761;BME280;31672;47.638;19.026;2023-02-16T12:25:38;101131.44;;;9.51;57.26
42761;BME280;31672;47.638;19.026;2023-02-16T12:47:40;101100.25;;;9.14;58.97
42761;BME280;31672;47.638;19.026;2023-02-16T12:52:55;101097.56;;;9.04;59.27
42761;BME280;31672;47.638;19.026;2023-02-16T13:08:35;101068.53;;;9.03;59.94
42761;BME280;31672;47.638;19.026;2023-02-16T13:13:43;101056.97;;;9.04;60.26
42761;BME280;31672;47.638;19.026;2023-02-16T13:18:50;101054.06;;;9.07;60.14
42761;BME280;31672;47.638;19.026;2023-02-16T13:46:26;101030.88;;;9.28;57.87
42761;BME280;31672;47.638;19.026;2023-02-16T13:51:42;101028.09;;;9.20;56.60
42761;BME280;31672;47.638;19.026;2023-02-16T13:56:48;101023.06;;;9.07;56.49
42761;BME280;31672;47.638;19.026;2023-02-16T14:01:52;101025.44;;;9.01;57.20
42761;BME280;31672;47.638;19.026;2023-02-16T14:22:54;101007.97;;;8.98;57.87
42761;BME280;31672;47.638;19.026;2023-02-16T14:38:49;101020.06;;;8.81;58.45
42761;BME280;31672;47.638;19.026;2023-02-16T14:55:44;101020.88;;;8.63;60.39
42761;BME280;31672;47.638;19.026;2023-02-16T15:01:14;101018.31;;;8.51;60.92
42761;BME280;31672;47.638;19.026;2023-02-16T15:11:36;101016.56;;;8.31;62.09
42761;BME280;31672;47.638;19.026;2023-02-16T15:17:05;101015.50;;;8.13;62.89
42761;BME280;31672;47.638;19.026;2023-02-16T15:22:21;101019.72;;;7.94;63.68
42761;BME280;31672;47.638;19.026;2023-02-16T15:27:25;101016.13;;;7.74;64.54
42761;BME280;31672;47.638;19.026;2023-02-16T15:32:28;101009.03;;;7.54;65.49
42761;BME280;31672;47.638;19.026;2023-02-16T15:37:31;101015.13;;;7.34;65.84
42761;BME280;31672;47.638;19.026;2023-02-16T15:42:34;101015.94;;;7.13;67.17
42761;BME280;31672;47.638;19.026;2023-02-16T15:47:39;101017.81;;;6.90;67.58
42761;BME280;31672;47.638;19.026;2023-02-16T15:52:42;101015.44;;;6.65;68.32
42761;BME280;31672;47.638;19.026;2023-02-16T15:57:45;101025.56;;;6.37;69.13
42761;BME280;31672;47.638;19.026;2023-02-16T16:02:52;101023.91;;;6.14;70.12
42761;BME280;31672;47.638;19.026;2023-02-16T16:07:56;101016.25;;;5.87;70.87
42761;BME280;31672;47.638;19.026;2023-02-16T16:13:04;101020.78;;;5.62;71.47
42761;BME280;31672;47.638;19.026;2023-02-16T16:18:47;101025.03;;;5.41;72.84
42761;BME280;31672;47.638;19.026;2023-02-16T16:23:58;101026.50;;;5.21;73.30
42761;BME280;31672;47.638;19.026;2023-02-16T16:29:02;101028.69;;;5.03;74.08
42761;BME280;31672;47.638;19.026;2023-02-16T16:34:10;101034.13;;;4.89;74.67
42761;BME280;31672;47.638;19.026;2023-02-16T16:44:37;101041.88;;;4.67;76.88
42761;BME280;31672;47.638;19.026;2023-02-16T16:55:33;101039.66;;;4.61;78.20
42761;BME280;31672;47.638;19.026;2023-02-16T17:00:38;101030.22;;;4.58;79.06
42761;BME280;31672;47.638;19.026;2023-02-16T17:05:44;101031.59;;;4.51;78.81
42761;BME280;31672;47.638;19.026;2023-02-16T17:10:47;101030.38;;;4.44;79.35
42761;BME280;31672;47.638;19.026;2023-02-16T17:16:07;101036.91;;;4.38;79.85
42761;BME280;31672;47.638;19.026;2023-02-16T17:21:14;101039.53;;;4.38;79.81
42761;BME280;31672;47.638;19.026;2023-02-16T17:26:17;101030.69;;;4.39;80.05
42761;BME280;31672;47.638;19.026;2023-02-16T17:31:20;101031.94;;;4.34;79.93
42761;BME280;31672;47.638;19.026;2023-02-16T17:36:25;101025.44;;;4.26;79.59
42761;BME280;31672;47.638;19.026;2023-02-16T17:41:29;101017.03;;;4.09;79.39
42761;BME280;31672;47.638;19.026;2023-02-16T17:46:32;101010.72;;;3.86;79.21
42761;BME280;31672;47.638;19.026;2023-02-16T17:51:35;101012.09;;;3.66;80.32
42761;BME280;31672;47.638;19.026;2023-02-16T17:56:38;101021.09;;;3.62;80.94
42761;BME280;31672;47.638;19.026;2023-02-16T18:01:43;101019.75;;;3.56;81.20
42761;BME280;31672;47.638;19.026;2023-02-16T18:06:46;101022.34;;;3.43;81.06
42761;BME280;31672;47.638;19.026;2023-02-16T18:11:50;101021.25;;;3.33;81.30
42761;BME280;31672;47.638;19.026;2023-02-16T18:16:53;101027.47;;;3.32;82.36
42761;BME280;31672;47.638;19.026;2023-02-16T18:21:56;101030.41;;;3.40;83.05
42761;BME280;31672;47.638;19.026;2023-02-16T18:26:59;101038.44;;;3.52;83.47
42761;BME280;31672;47.638;19.026;2023-02-16T18:32:03;101046.63;;;3.60;83.47
42761;BME280;31672;47.638;19.026;2023-02-16T18:37:06;101037.63;;;3.64;83.49
42761;BME280;31672;47.638;19.026;2023-02-16T18:42:10;101036.06;;;3.74;83.55
42761;BME280;31672;47.638;19.026;2023-02-16T18:47:13;101039.00;;;3.69;83.08
42761;BME280;31672;47.638;19.026;2023-02-16T18:52:17;101027.50;;;3.58;82.77
42761;BME280;31672;47.638;19.026;2023-02-16T18:57:20;101027.78;;;3.40;82.35
42761;BME280;31672;47.638;19.026;2023-02-16T19:02:24;101017.53;;;3.23;82.53
42761;BME280;31672;47.638;19.026;2023-02-16T19:07:27;101031.69;;;3.08;82.99
42761;BME280;31672;47.638;19.026;2023-02-16T19:12:30;101032.72;;;3.05;83.24
42761;BME280;31672;47.638;19.026;2023-02-16T19:17:34;101035.56;;;3.02;82.38
42761;BME280;31672;47.638;19.026;2023-02-16T19:22:37;101042.03;;;2.97;82.79
42761;BME280;31672;47.638;19.026;2023-02-16T19:27:41;101036.56;;;3.00;82.33
42761;BME280;31672;47.638;19.026;2023-02-16T19:32:44;101030.09;;;3.05;82.31
42761;BME280;31672;47.638;19.026;2023-02-16T19:37:48;101044.81;;;3.08;82.24
42761;BME280;31672;47.638;19.026;2023-02-16T19:42:51;101043.78;;;3.10;82.22
42761;BME280;31672;47.638;19.026;2023-02-16T19:47:53;101046.84;;;3.17;81.70
42761;BME280;31672;47.638;19.026;2023-02-16T19:52:56;101040.97;;;3.13;81.10
42761;BME280;31672;47.638;19.026;2023-02-16T19:58:00;101043.63;;;2.99;80.83
42761;BME280;31672;47.638;19.026;2023-02-16T20:03:03;101045.16;;;2.89;80.84
42761;BME280;31672;47.638;19.026;2023-02-16T20:08:06;101036.84;;;2.68;80.67
42761;BME280;31672;47.638;19.026;2023-02-16T20:13:10;101048.53;;;2.35;80.70
42761;BME280;31672;47.638;19.026;2023-02-16T20:18:12;101048.03;;;2.00;80.93
42761;BME280;31672;47.638;19.026;2023-02-16T20:23:16;101047.16;;;1.71;81.41
42761;BME280;31672;47.638;19.026;2023-02-16T20:28:19;101051.88;;;1.50;82.01
42761;BME280;31672;47.638;19.026;2023-02-16T20:33:22;101048.69;;;1.45;84.38
42761;BME280;31672;47.638;19.026;2023-02-16T20:38:25;101046.22;;;1.72;85.55
42761;BME280;31672;47.638;19.026;2023-02-16T20:43:28;101048.88;;;2.01;86.53
42761;BME280;31672;47.638;19.026;2023-02-16T20:48:33;101054.16;;;2.29;86.10
42761;BME280;31672;47.638;19.026;2023-02-16T20:53:36;101048.88;;;2.44;85.45
42761;BME280;31672;47.638;19.026;2023-02-16T20:58:40;101052.63;;;2.39;83.67
42761;BME280;31672;47.638;19.026;2023-02-16T21:03:44;101047.78;;;2.05;82.83
42761;BME280;31672;47.638;19.026;2023-02-16T21:08:47;101035.72;;;1.72;83.40
42761;BME280;31672;47.638;19.026;2023-02-16T21:13:50;101034.47;;;1.49;83.25
42761;BME280;31672;47.638;19.026;2023-02-16T21:18:55;101031.31;;;1.28;84.07
42761;BME280;31672;47.638;19.026;2023-02-16T21:23:58;101044.38;;;1.14;84.96
42761;BME280;31672;47.638;19.026;2023-02-16T21:29:01;101047.22;;;1.10;85.30
42761;BME280;31672;47.638;19.026;2023-02-16T21:34:04;101040.38;;;1.07;85.75
42761;BME280;31672;47.638;19.026;2023-02-16T21:39:07;101039.28;;;1.11;86.66
42761;BME280;31672;47.638;19.026;2023-02-16T21:44:14;101034.28;;;1.22;87.65
42761;BME280;31672;47.638;19.026;2023-02-16T21:49:19;101027.31;;;1.37;87.58
42761;BME280;31672;47.638;19.026;2023-02-16T21:54:22;101024.81;;;1.50;87.80
42761;BME280;31672;47.638;19.026;2023-02-16T21:59:45;101015.03;;;1.53;87.35
42761;BME280;31672;47.638;19.026;2023-02-16T22:04:48;101018.84;;;1.48;87.47
42761;BME280;31672;47.638;19.026;2023-02-16T22:09:51;101021.16;;;1.38;87.13
42761;BME280;31672;47.638;19.026;2023-02-16T22:14:54;101023.38;;;1.30;87.22
42761;BME280;31672;47.638;19.026;2023-02-16T22:19:57;101019.69;;;1.18;87.22
42761;BME280;31672;47.638;19.026;2023-02-16T22:24:59;101013.72;;;1.00;87.03
42761;BME280;31672;47.638;19.026;2023-02-16T22:30:04;101018.22;;;0.83;87.24
42761;BME280;31672;47.638;19.026;2023-02-16T22:35:07;101017.53;;;0.63;87.19
42761;BME280;31672;47.638;19.026;2023-02-16T22:40:10;101018.38;;;0.48;87.32
42761;BME280;31672;47.638;19.026;2023-02-16T22:45:13;101017.19;;;0.38;87.68
42761;BME280;31672;47.638;19.026;2023-02-16T22:50:17;101009.69;;;0.32;87.90
42761;BME280;31672;47.638;19.026;2023-02-16T22:55:20;101004.00;;;0.23;88.36
42761;BME280;31672;47.638;19.026;2023-02-16T23:00:23;101004.19;;;0.20;88.96
42761;BME280;31672;47.638;19.026;2023-02-16T23:05:25;101005.50;;;0.12;89.18
42761;BME280;31672;47.638;19.026;2023-02-16T23:10:34;101013.09;;;0.01;89.41
42761;BME280;31672;47.638;19.026;2023-02-16T23:15:37;101005.19;;;-0.15;89.65
42761;BME280;31672;47.638;19.026;2023-02-16T23:20:40;101010.22;;;-0.28;89.62
42761;BME280;31672;47.638;19.026;2023-02-16T23:25:46;101008.38;;;-0.43;89.72
42761;BME280;31672;47.638;19.026;2023-02-16T23:30:49;101015.00;;;-0.53;90.40
42761;BME280;31672;47.638;19.026;2023-02-16T23:35:52;101015.38;;;-0.61;90.96
42761;BME280;31672;47.638;19.026;2023-02-16T23:41:03;101019.13;;;-0.67;91.45
42761;BME280;31672;47.638;19.026;2023-02-16T23:46:08;101015.84;;;-0.70;91.55
42761;BME280;31672;47.638;19.026;2023-02-16T23:51:11;101017.53;;;-0.69;92.54
42761;BME280;31672;47.638;19.026;2023-02-16T23:56:24;101020.75;;;-0.64;92.57
